sensor_id;sensor_type;location;lat;lon;timestamp;pressure;altitude;pressure_sealevel;temperature;humidity
59419;BME280;45224;50.904;6.038;2023-07-20T00:00:11;99693.88;;;18.60;76.22
59419;BME280;45224;50.904;6.038;2023-07-20T00:01:43;99694.19;;;18.52;76.81
59419;BME280;45224;50.904;6.038;2023-07-20T00:03:15;99688.13;;;18.50;76.91
59419;BME280;45224;50.904;6.038;2023-07-20T00:04:49;99681.25;;;18.48;76.73
59419;BME280;45224;50.904;6.038;2023-07-20T00:06:19;99686.44;;;18.49;76.74
59419;BME280;45224;50.904;6.038;2023-07-20T00:07:50;99685.66;;;18.46;76.88
59419;BME280;45224;50.904;6.038;2023-07-20T00:09:22;99684.06;;;18.41;77.66
59419;BME280;45224;50.904;6.038;2023-07-20T00:10:52;99679.88;;;18.36;77.42
59419;BME280;45224;50.904;6.038;2023-07-20T00:12:23;99684.91;;;18.42;76.87
59419;BME280;45224;50.904;6.038;2023-07-20T00:13:53;99681.16;;;18.24;78.32
59419;BME280;45224;50.904;6.038;2023-07-20T00:15:24;99681.75;;;18.32;77.71
59419;BME280;45224;50.904;6.038;2023-07-20T00:16:55;99689.81;;;18.26;77.93
59419;BME280;45224;50.904;6.038;2023-07-20T00:18:26;99687.47;;;18.18;78.58
59419;BME280;45224;50.904;6.038;2023-07-20T00:19:56;99691.53;;;18.27;77.81
59419;BME280;45224;50.904;6.038;2023-07-20T00:21:27;99679.53;;;18.20;78.47
59419;BME280;45224;50.904;6.038;2023-07-20T00:22:59;99683.28;;;18.13;79.08
59419;BME280;45224;50.904;6.038;2023-07-20T00:24:30;99685.09;;;18.11;79.33
59419;BME280;45224;50.904;6.038;2023-07-20T00:26:03;99679.03;;;18.09;79.37
59419;BME280;45224;50.904;6.038;2023-07-20T00:27:34;99687.91;;;18.04;79.97
59419;BME280;45224;50.904;6.038;2023-07-20T00:29:04;99681.91;;;18.01;80.38
59419;BME280;45224;50.904;6.038;2023-07-20T00:30:37;99680.16;;;18.01;80.01
59419;BME280;45224;50.904;6.038;2023-07-20T00:32:08;99681.88;;;18.02;79.94
59419;BME280;45224;50.904;6.038;2023-07-20T00:33:39;99682.06;;;17.96;80.39
59419;BME280;45224;50.904;6.038;2023-07-20T00:35:09;99683.66;;;18.00;79.97
59419;BME280;45224;50.904;6.038;2023-07-20T00:36:41;99682.06;;;17.96;80.40
59419;BME280;45224;50.904;6.038;2023-07-20T00:38:11;99671.59;;;17.96;79.70
59419;BME280;45224;50.904;6.038;2023-07-20T00:39:42;99681.97;;;17.99;80.15
59419;BME280;45224;50.904;6.038;2023-07-20T00:41:12;99673.28;;;17.97;79.91
59419;BME280;45224;50.904;6.038;2023-07-20T00:42:44;99683.75;;;17.97;80.31
59419;BME280;45224;50.904;6.038;2023-07-20T00:44:15;99685.47;;;17.98;79.86
59419;BME280;45224;50.904;6.038;2023-07-20T00:45:45;99675.22;;;17.92;80.02
59419;BME280;45224;50.904;6.038;2023-07-20T00:47:16;99678.66;;;17.94;80.05
59419;BME280;45224;50.904;6.038;2023-07-20T00:48:47;99678.84;;;17.88;80.71
59419;BME280;45224;50.904;6.038;2023-07-20T00:50:17;99676.25;;;17.86;80.44
59419;BME280;45224;50.904;6.038;2023-07-20T00:51:50;99680.59;;;17.86;80.77
59419;BME280;45224;50.904;6.038;2023-07-20T00:53:21;99682.50;;;17.81;81.28
59419;BME280;45224;50.904;6.038;2023-07-20T00:54:52;99677.97;;;17.86;80.59
59419;BME280;45224;50.904;6.038;2023-07-20T00:56:22;99683.38;;;17.81;80.38
59419;BME280;45224;50.904;6.038;2023-07-20T00:57:53;99681.63;;;17.82;80.57
59419;BME280;45224;50.904;6.038;2023-07-20T00:59:24;99686.13;;;17.77;81.42
59419;BME280;45224;50.904;6.038;2023-07-20T01:00:54;99686.31;;;17.70;81.44
59419;BME280;45224;50.904;6.038;2023-07-20T01:02:25;99673.28;;;17.69;80.95
59419;BME280;45224;50.904;6.038;2023-07-20T01:03:55;99686.22;;;17.74;80.86
59419;BME280;45224;50.904;6.038;2023-07-20T01:05:38;99686.41;;;17.67;81.45
59419;BME280;45224;50.904;6.038;2023-07-20T01:07:14;99688.13;;;17.68;81.56
59419;BME280;45224;50.904;6.038;2023-07-20T01:12:18;99690.94;;;17.62;81.73
59419;BME280;45224;50.904;6.038;2023-07-20T01:13:53;99679.72;;;17.59;81.71
59419;BME280;45224;50.904;6.038;2023-07-20T01:15:23;99676.13;;;17.61;81.34
59419;BME280;45224;50.904;6.038;2023-07-20T01:16:54;99681.28;;;17.64;81.33
59419;BME280;45224;50.904;6.038;2023-07-20T01:18:25;99677.06;;;17.60;81.44
59419;BME280;45224;50.904;6.038;2023-07-20T01:19:55;99678.72;;;17.63;81.25
59419;BME280;45224;50.904;6.038;2023-07-20T01:21:34;99678.66;;;17.64;81.20
59419;BME280;45224;50.904;6.038;2023-07-20T01:23:27;99680.56;;;17.59;82.10
59419;BME280;45224;50.904;6.038;2023-07-20T01:27:23;99671.31;;;17.49;82.69
59419;BME280;45224;50.904;6.038;2023-07-20T01:29:14;99684.16;;;17.55;81.82
59419;BME280;45224;50.904;6.038;2023-07-20T01:32:23;99678.31;;;17.47;82.55
59419;BME280;45224;50.904;6.038;2023-07-20T01:34:00;99680.13;;;17.45;82.54
59419;BME280;45224;50.904;6.038;2023-07-20T01:35:36;99668.91;;;17.41;82.49
59419;BME280;45224;50.904;6.038;2023-07-20T01:37:33;99677.66;;;17.40;83.01
59419;BME280;45224;50.904;6.038;2023-07-20T01:39:08;99673.09;;;17.47;81.53
59419;BME280;45224;50.904;6.038;2023-07-20T01:40:42;99671.56;;;17.40;82.56
59419;BME280;45224;50.904;6.038;2023-07-20T01:42:12;99673.47;;;17.34;82.82
59419;BME280;45224;50.904;6.038;2023-07-20T01:43:43;99675.47;;;17.26;83.23
59419;BME280;45224;50.904;6.038;2023-07-20T01:45:13;99671.72;;;17.35;82.41
59419;BME280;45224;50.904;6.038;2023-07-20T01:46:44;99679.63;;;17.32;82.94
59419;BME280;45224;50.904;6.038;2023-07-20T01:48:15;99679.47;;;17.38;82.03
59419;BME280;45224;50.904;6.038;2023-07-20T01:49:46;99674.38;;;17.33;82.56
59419;BME280;45224;50.904;6.038;2023-07-20T01:51:16;99682.97;;;17.37;82.27
59419;BME280;45224;50.904;6.038;2023-07-20T01:52:48;99677.75;;;17.37;82.08
59419;BME280;45224;50.904;6.038;2023-07-20T01:54:19;99676.97;;;17.33;82.25
59419;BME280;45224;50.904;6.038;2023-07-20T01:55:52;99666.53;;;17.33;82.04
59419;BME280;45224;50.904;6.038;2023-07-20T01:57:24;99675.16;;;17.36;82.38
59419;BME280;45224;50.904;6.038;2023-07-20T01:58:54;99673.47;;;17.34;82.34
59419;BME280;45224;50.904;6.038;2023-07-20T02:00:25;99670.91;;;17.33;82.37
59419;BME280;45224;50.904;6.038;2023-07-20T02:01:55;99669.91;;;17.37;81.84
59419;BME280;45224;50.904;6.038;2023-07-20T02:03:29;99677.59;;;17.42;81.46
59419;BME280;45224;50.904;6.038;2023-07-20T02:04:59;99676.72;;;17.43;81.56
59419;BME280;45224;50.904;6.038;2023-07-20T02:06:30;99672.56;;;17.36;82.10
59419;BME280;45224;50.904;6.038;2023-07-20T02:08:00;99677.59;;;17.42;81.26
59419;BME280;45224;50.904;6.038;2023-07-20T02:09:32;99680.94;;;17.47;81.11
59419;BME280;45224;50.904;6.038;2023-07-20T02:11:02;99673.13;;;17.45;81.28
59419;BME280;45224;50.904;6.038;2023-07-20T02:12:35;99663.69;;;17.41;81.31
59419;BME280;45224;50.904;6.038;2023-07-20T02:14:05;99669.84;;;17.39;81.89
59419;BME280;45224;50.904;6.038;2023-07-20T02:15:36;99672.47;;;17.39;81.48
59419;BME280;45224;50.904;6.038;2023-07-20T02:17:06;99666.69;;;17.27;82.21
59419;BME280;45224;50.904;6.038;2023-07-20T02:18:37;99675.16;;;17.36;81.72
59419;BME280;45224;50.904;6.038;2023-07-20T02:20:09;99677.78;;;17.36;81.80
59419;BME280;45224;50.904;6.038;2023-07-20T02:21:42;99674.38;;;17.33;81.86
59419;BME280;45224;50.904;6.038;2023-07-20T02:23:13;99666.88;;;17.21;82.68
59419;BME280;45224;50.904;6.038;2023-07-20T02:24:43;99670.91;;;17.33;81.76
59419;BME280;45224;50.904;6.038;2023-07-20T02:26:14;99675.16;;;17.36;81.49
59419;BME280;45224;50.904;6.038;2023-07-20T02:27:45;99673.38;;;17.38;81.43
59419;BME280;45224;50.904;6.038;2023-07-20T02:29:15;99669.84;;;17.39;80.83
59419;BME280;45224;50.904;6.038;2023-07-20T02:30:46;99672.38;;;17.42;80.70
59419;BME280;45224;50.904;6.038;2023-07-20T02:32:16;99668.97;;;17.40;80.89
59419;BME280;45224;50.904;6.038;2023-07-20T02:33:47;99668.75;;;17.47;80.50
59419;BME280;45224;50.904;6.038;2023-07-20T02:35:17;99669.50;;;17.51;80.04
59419;BME280;45224;50.904;6.038;2023-07-20T02:36:48;99669.50;;;17.51;80.27
59419;BME280;45224;50.904;6.038;2023-07-20T02:38:19;99670.34;;;17.51;79.96
59419;BME280;45224;50.904;6.038;2023-07-20T02:39:49;99665.97;;;17.52;80.13
59419;BME280;45224;50.904;6.038;2023-07-20T02:41:20;99670.38;;;17.50;80.36
59419;BME280;45224;50.904;6.038;2023-07-20T02:42:51;99668.88;;;17.43;80.76
59419;BME280;45224;50.904;6.038;2023-07-20T02:44:22;99668.44;;;17.28;81.53
59419;BME280;45224;50.904;6.038;2023-07-20T02:45:52;99671.75;;;17.33;81.24
59419;BME280;45224;50.904;6.038;2023-07-20T02:47:23;99666.34;;;17.40;80.50
59419;BME280;45224;50.904;6.038;2023-07-20T02:48:53;99668.16;;;17.38;80.76
59419;BME280;45224;50.904;6.038;2023-07-20T02:50:24;99668.25;;;17.34;80.80
59419;BME280;45224;50.904;6.038;2023-07-20T02:51:55;99669.94;;;17.36;80.54
59419;BME280;45224;50.904;6.038;2023-07-20T02:53:25;99670.91;;;17.33;80.73
59419;BME280;45224;50.904;6.038;2023-07-20T02:54:56;99670.00;;;17.34;80.32
59419;BME280;45224;50.904;6.038;2023-07-20T02:56:27;99668.25;;;17.34;80.18
59419;BME280;45224;50.904;6.038;2023-07-20T02:57:57;99671.84;;;17.30;80.71
59419;BME280;45224;50.904;6.038;2023-07-20T02:59:28;99672.91;;;17.25;80.62
59419;BME280;45224;50.904;6.038;2023-07-20T03:00:59;99674.53;;;17.27;80.27
59419;BME280;45224;50.904;6.038;2023-07-20T03:02:30;99676.31;;;17.27;80.36
59419;BME280;45224;50.904;6.038;2023-07-20T03:04:00;99679.81;;;17.26;80.45
59419;BME280;45224;50.904;6.038;2023-07-20T03:05:31;99676.25;;;17.28;79.92
59419;BME280;45224;50.904;6.038;2023-07-20T03:07:04;99680.94;;;17.17;80.75
59419;BME280;45224;50.904;6.038;2023-07-20T03:08:34;99683.00;;;17.06;81.56
59419;BME280;45224;50.904;6.038;2023-07-20T03:10:06;99681.19;;;17.08;80.94
59419;BME280;45224;50.904;6.038;2023-07-20T03:11:39;99685.72;;;17.03;81.14
59419;BME280;45224;50.904;6.038;2023-07-20T03:13:10;99683.44;;;16.90;82.26
59419;BME280;45224;50.904;6.038;2023-07-20T03:14:40;99680.97;;;16.83;82.85
59419;BME280;45224;50.904;6.038;2023-07-20T03:16:12;99681.72;;;16.89;81.85
59419;BME280;45224;50.904;6.038;2023-07-20T03:17:45;99683.25;;;16.96;81.44
59419;BME280;45224;50.904;6.038;2023-07-20T03:19:16;99690.28;;;16.94;81.38
59419;BME280;45224;50.904;6.038;2023-07-20T03:20:47;99692.13;;;16.91;81.71
59419;BME280;45224;50.904;6.038;2023-07-20T03:22:18;99691.34;;;16.87;82.08
59419;BME280;45224;50.904;6.038;2023-07-20T03:23:49;99695.88;;;16.79;82.96
59419;BME280;45224;50.904;6.038;2023-07-20T03:25:21;99695.81;;;16.82;82.16
59419;BME280;45224;50.904;6.038;2023-07-20T03:26:52;99698.56;;;16.76;82.75
59419;BME280;45224;50.904;6.038;2023-07-20T03:28:23;99688.13;;;16.76;82.52
59419;BME280;45224;50.904;6.038;2023-07-20T03:29:53;99689.94;;;16.74;82.83
59419;BME280;45224;50.904;6.038;2023-07-20T03:31:24;99697.19;;;16.63;84.16
59419;BME280;45224;50.904;6.038;2023-07-20T03:33:04;99702.22;;;16.70;83.40
59419;BME280;45224;50.904;6.038;2023-07-20T03:34:35;99696.19;;;16.68;83.43
59419;BME280;45224;50.904;6.038;2023-07-20T03:36:05;99701.44;;;16.67;83.67
59419;BME280;45224;50.904;6.038;2023-07-20T03:37:36;99708.16;;;16.75;82.69
59419;BME280;45224;50.904;6.038;2023-07-20T03:39:07;99702.16;;;16.73;83.21
59419;BME280;45224;50.904;6.038;2023-07-20T03:40:37;99705.59;;;16.74;82.83
59419;BME280;45224;50.904;6.038;2023-07-20T03:42:08;99708.28;;;16.71;83.48
59419;BME280;45224;50.904;6.038;2023-07-20T03:43:38;99696.22;;;16.67;83.46
59419;BME280;45224;50.904;6.038;2023-07-20T03:45:09;99710.97;;;16.68;83.68
59419;BME280;45224;50.904;6.038;2023-07-20T03:46:39;99706.81;;;16.60;84.83
59419;BME280;45224;50.904;6.038;2023-07-20T03:48:10;99711.91;;;16.67;84.25
59419;BME280;45224;50.904;6.038;2023-07-20T03:49:41;99710.97;;;16.68;84.21
59419;BME280;45224;50.904;6.038;2023-07-20T03:51:12;99708.66;;;16.57;85.27
59419;BME280;45224;50.904;6.038;2023-07-20T03:52:42;99713.75;;;16.61;84.60
59419;BME280;45224;50.904;6.038;2023-07-20T03:54:13;99713.84;;;16.58;85.21
59419;BME280;45224;50.904;6.038;2023-07-20T03:55:51;99704.94;;;16.66;84.28
59419;BME280;45224;50.904;6.038;2023-07-20T03:57:22;99711.75;;;16.71;83.99
59419;BME280;45224;50.904;6.038;2023-07-20T03:58:52;99706.69;;;16.67;84.25
59419;BME280;45224;50.904;6.038;2023-07-20T04:00:23;99712.19;;;16.54;85.88
59419;BME280;45224;50.904;6.038;2023-07-20T04:01:54;99712.84;;;16.63;84.87
59419;BME280;45224;50.904;6.038;2023-07-20T04:03:24;99722.25;;;16.70;84.81
59419;BME280;45224;50.904;6.038;2023-07-20T04:04:56;99730.81;;;16.75;84.27
59419;BME280;45224;50.904;6.038;2023-07-20T04:06:27;99722.06;;;16.76;84.58
59419;BME280;45224;50.904;6.038;2023-07-20T04:07:58;99726.38;;;16.78;84.38
59419;BME280;45224;50.904;6.038;2023-07-20T04:09:28;99713.28;;;16.80;84.14
59419;BME280;45224;50.904;6.038;2023-07-20T04:11:01;99722.00;;;16.79;84.24
59419;BME280;45224;50.904;6.038;2023-07-20T04:12:32;99724.59;;;16.79;84.88
59419;BME280;45224;50.904;6.038;2023-07-20T04:14:02;99719.38;;;16.79;84.83
59419;BME280;45224;50.904;6.038;2023-07-20T04:15:33;99721.03;;;16.83;84.34
59419;BME280;45224;50.904;6.038;2023-07-20T04:17:04;99716.69;;;16.82;84.28
59419;BME280;45224;50.904;6.038;2023-07-20T04:18:35;99719.38;;;16.79;85.10
59419;BME280;45224;50.904;6.038;2023-07-20T04:20:06;99716.09;;;16.72;86.08
59419;BME280;45224;50.904;6.038;2023-07-20T04:21:40;99719.41;;;16.77;84.76
59419;BME280;45224;50.904;6.038;2023-07-20T04:23:11;99709.78;;;16.81;84.44
59419;BME280;45224;50.904;6.038;2023-07-20T04:24:42;99717.59;;;16.81;84.77
59419;BME280;45224;50.904;6.038;2023-07-20T04:26:13;99718.56;;;16.77;85.80
59419;BME280;45224;50.904;6.038;2023-07-20T04:27:45;99715.19;;;16.73;85.81
59419;BME280;45224;50.904;6.038;2023-07-20T04:29:15;99714.19;;;16.77;85.46
59419;BME280;45224;50.904;6.038;2023-07-20T04:30:49;99717.88;;;16.70;86.57
59419;BME280;45224;50.904;6.038;2023-07-20T04:32:20;99719.53;;;16.73;86.41
59419;BME280;45224;50.904;6.038;2023-07-20T04:33:51;99724.03;;;16.68;86.51
59419;BME280;45224;50.904;6.038;2023-07-20T04:37:27;99725.59;;;16.75;86.11
59419;BME280;45224;50.904;6.038;2023-07-20T04:38:58;99724.59;;;16.79;85.91
59419;BME280;45224;50.904;6.038;2023-07-20T04:40:28;99732.34;;;16.82;85.83
59419;BME280;45224;50.904;6.038;2023-07-20T04:41:59;99733.13;;;16.87;85.07
59419;BME280;45224;50.904;6.038;2023-07-20T04:43:29;99735.72;;;16.87;85.25
59419;BME280;45224;50.904;6.038;2023-07-20T04:45:00;99734.81;;;16.90;85.15
59419;BME280;45224;50.904;6.038;2023-07-20T04:46:30;99733.00;;;16.92;85.38
59419;BME280;45224;50.904;6.038;2023-07-20T04:48:06;99734.88;;;16.87;86.17
59419;BME280;45224;50.904;6.038;2023-07-20T04:49:38;99728.94;;;16.80;86.94
59419;BME280;45224;50.904;6.038;2023-07-20T04:51:08;99737.53;;;16.85;86.09
59419;BME280;45224;50.904;6.038;2023-07-20T04:52:40;99733.97;;;16.89;85.78
59419;BME280;45224;50.904;6.038;2023-07-20T04:54:11;99737.38;;;16.91;85.96
59419;BME280;45224;50.904;6.038;2023-07-20T04:55:48;99732.31;;;16.85;86.33
59419;BME280;45224;50.904;6.038;2023-07-20T04:57:23;99733.97;;;16.89;86.30
59419;BME280;45224;50.904;6.038;2023-07-20T04:58:54;99734.75;;;16.91;86.32
59419;BME280;45224;50.904;6.038;2023-07-20T05:00:24;99733.88;;;16.92;85.87
59419;BME280;45224;50.904;6.038;2023-07-20T05:01:55;99744.13;;;16.98;86.01
59419;BME280;45224;50.904;6.038;2023-07-20T05:03:25;99742.31;;;17.02;85.25
59419;BME280;45224;50.904;6.038;2023-07-20T05:04:57;99737.06;;;17.04;85.85
59419;BME280;45224;50.904;6.038;2023-07-20T05:06:27;99738.06;;;16.98;86.67
59419;BME280;45224;50.904;6.038;2023-07-20T05:08:13;99731.91;;;17.01;85.56
59419;BME280;45224;50.904;6.038;2023-07-20T05:09:43;99731.72;;;17.07;85.70
59419;BME280;45224;50.904;6.038;2023-07-20T05:11:14;99733.44;;;17.08;85.82
59419;BME280;45224;50.904;6.038;2023-07-20T05:12:44;99732.47;;;17.12;85.27
59419;BME280;45224;50.904;6.038;2023-07-20T05:14:15;99729.84;;;17.12;85.68
59419;BME280;45224;50.904;6.038;2023-07-20T05:15:46;99733.19;;;17.17;84.83
59419;BME280;45224;50.904;6.038;2023-07-20T05:17:20;99734.03;;;17.18;85.00
59419;BME280;45224;50.904;6.038;2023-07-20T05:18:51;99733.06;;;17.22;85.05
59419;BME280;45224;50.904;6.038;2023-07-20T05:20:22;99735.59;;;17.25;84.70
59419;BME280;45224;50.904;6.038;2023-07-20T05:21:52;99726.00;;;17.25;84.75
59419;BME280;45224;50.904;6.038;2023-07-20T05:23:24;99726.88;;;17.24;84.79
59419;BME280;45224;50.904;6.038;2023-07-20T05:24:54;99734.56;;;17.30;84.83
59419;BME280;45224;50.904;6.038;2023-07-20T05:26:33;99730.22;;;17.29;84.83
59419;BME280;45224;50.904;6.038;2023-07-20T05:28:04;99730.16;;;17.31;84.87
59419;BME280;45224;50.904;6.038;2023-07-20T05:29:35;99737.88;;;17.36;84.68
59419;BME280;45224;50.904;6.038;2023-07-20T05:31:05;99727.50;;;17.32;85.20
59419;BME280;45224;50.904;6.038;2023-07-20T05:32:36;99736.88;;;17.41;84.75
59419;BME280;45224;50.904;6.038;2023-07-20T05:34:07;99738.56;;;17.42;84.72
59419;BME280;45224;50.904;6.038;2023-07-20T05:35:37;99739.56;;;17.38;85.47
59419;BME280;45224;50.904;6.038;2023-07-20T05:37:08;99740.44;;;17.37;85.34
59419;BME280;45224;50.904;6.038;2023-07-20T05:38:38;99739.44;;;17.43;84.91
59419;BME280;45224;50.904;6.038;2023-07-20T05:40:09;99737.63;;;17.45;84.95
59419;BME280;45224;50.904;6.038;2023-07-20T05:41:42;99735.72;;;17.50;84.68
59419;BME280;45224;50.904;6.038;2023-07-20T05:43:12;99744.84;;;17.37;85.89
59419;BME280;45224;50.904;6.038;2023-07-20T05:44:44;99740.50;;;17.36;85.72
59419;BME280;45224;50.904;6.038;2023-07-20T05:46:14;99743.91;;;17.39;85.43
59419;BME280;45224;50.904;6.038;2023-07-20T05:47:46;99748.16;;;17.42;85.06
59419;BME280;45224;50.904;6.038;2023-07-20T05:49:16;99740.38;;;17.40;85.25
59419;BME280;45224;50.904;6.038;2023-07-20T05:50:47;99743.66;;;17.47;85.06
59419;BME280;45224;50.904;6.038;2023-07-20T05:52:17;99740.28;;;17.43;85.52
59419;BME280;45224;50.904;6.038;2023-07-20T05:53:47;99744.50;;;17.49;84.86
59419;BME280;45224;50.904;6.038;2023-07-20T05:55:18;99746.19;;;17.50;84.80
59419;BME280;45224;50.904;6.038;2023-07-20T05:56:48;99744.31;;;17.53;84.64
59419;BME280;45224;50.904;6.038;2023-07-20T05:58:19;99750.38;;;17.56;84.37
59419;BME280;45224;50.904;6.038;2023-07-20T05:59:50;99747.91;;;17.51;85.01
59419;BME280;45224;50.904;6.038;2023-07-20T06:01:21;99749.41;;;17.58;84.42
59419;BME280;45224;50.904;6.038;2023-07-20T06:02:53;99757.88;;;17.66;84.59
59419;BME280;45224;50.904;6.038;2023-07-20T06:04:23;99759.66;;;17.66;85.78
59419;BME280;45224;50.904;6.038;2023-07-20T06:05:59;99757.53;;;17.79;84.36
59419;BME280;45224;50.904;6.038;2023-07-20T06:07:29;99752.34;;;17.77;84.16
59419;BME280;45224;50.904;6.038;2023-07-20T06:09:01;99757.53;;;17.79;83.98
59419;BME280;45224;50.904;6.038;2023-07-20T06:10:34;99759.13;;;17.84;83.83
59419;BME280;45224;50.904;6.038;2023-07-20T06:12:05;99758.34;;;17.81;83.80
59419;BME280;45224;50.904;6.038;2023-07-20T06:13:36;99768.56;;;17.90;83.40
59419;BME280;45224;50.904;6.038;2023-07-20T06:15:24;99763.06;;;17.99;82.97
59419;BME280;45224;50.904;6.038;2023-07-20T06:16:55;99752.59;;;17.99;82.50
59419;BME280;45224;50.904;6.038;2023-07-20T06:18:25;99761.19;;;18.03;82.67
59419;BME280;45224;50.904;6.038;2023-07-20T06:19:56;99760.31;;;18.04;82.32
59419;BME280;45224;50.904;6.038;2023-07-20T06:21:27;99765.44;;;18.07;82.35
59419;BME280;45224;50.904;6.038;2023-07-20T06:22:57;99767.38;;;18.00;82.73
59419;BME280;45224;50.904;6.038;2023-07-20T06:24:28;99762.13;;;18.00;82.28
59419;BME280;45224;50.904;6.038;2023-07-20T06:25:58;99765.56;;;18.02;82.02
59419;BME280;45224;50.904;6.038;2023-07-20T06:27:29;99767.09;;;18.10;81.60
59419;BME280;45224;50.904;6.038;2023-07-20T06:28:59;99773.03;;;18.15;81.70
59419;BME280;45224;50.904;6.038;2023-07-20T06:30:30;99771.06;;;18.21;81.28
59419;BME280;45224;50.904;6.038;2023-07-20T06:32:00;99774.97;;;18.36;81.11
59419;BME280;45224;50.904;6.038;2023-07-20T06:33:31;99773.16;;;18.38;81.16
59419;BME280;45224;50.904;6.038;2023-07-20T06:35:01;99773.91;;;18.42;81.36
59419;BME280;45224;50.904;6.038;2023-07-20T06:36:32;99765.91;;;18.47;80.51
59419;BME280;45224;50.904;6.038;2023-07-20T06:38:02;99769.31;;;18.49;79.90
59419;BME280;45224;50.904;6.038;2023-07-20T06:39:33;99768.28;;;18.54;79.45
59419;BME280;45224;50.904;6.038;2023-07-20T06:41:06;99765.72;;;18.53;79.46
59419;BME280;45224;50.904;6.038;2023-07-20T06:42:37;99770.47;;;18.67;79.67
59419;BME280;45224;50.904;6.038;2023-07-20T06:44:07;99757.94;;;18.76;78.93
59419;BME280;45224;50.904;6.038;2023-07-20T06:45:38;99765.22;;;18.93;78.42
59419;BME280;45224;50.904;6.038;2023-07-20T06:47:08;99767.69;;;18.98;78.20
59419;BME280;45224;50.904;6.038;2023-07-20T06:48:39;99767.75;;;18.96;78.08
59419;BME280;45224;50.904;6.038;2023-07-20T06:50:10;99763.34;;;18.97;77.55
59419;BME280;45224;50.904;6.038;2023-07-20T06:51:40;99762.13;;;19.07;76.70
59419;BME280;45224;50.904;6.038;2023-07-20T06:53:11;99752.25;;;19.15;76.12
59419;BME280;45224;50.904;6.038;2023-07-20T06:54:41;99750.25;;;19.22;76.00
59419;BME280;45224;50.904;6.038;2023-07-20T06:56:12;99748.72;;;19.40;75.76
59419;BME280;45224;50.904;6.038;2023-07-20T06:57:43;99757.94;;;19.50;74.46
59419;BME280;45224;50.904;6.038;2023-07-20T06:59:13;99761.88;;;19.62;73.93
59419;BME280;45224;50.904;6.038;2023-07-20T07:00:44;99760.00;;;19.66;73.58
59419;BME280;45224;50.904;6.038;2023-07-20T07:02:15;99767.19;;;19.61;73.24
59419;BME280;45224;50.904;6.038;2023-07-20T07:03:45;99773.50;;;19.55;73.89
59419;BME280;45224;50.904;6.038;2023-07-20T07:05:16;99771.56;;;19.60;73.09
59419;BME280;45224;50.904;6.038;2023-07-20T07:06:47;99766.13;;;19.65;73.18
59419;BME280;45224;50.904;6.038;2023-07-20T07:08:18;99776.63;;;19.65;73.13
59419;BME280;45224;50.904;6.038;2023-07-20T07:09:49;99776.84;;;19.59;72.87
59419;BME280;45224;50.904;6.038;2023-07-20T07:11:21;99774.38;;;19.56;72.49
59419;BME280;45224;50.904;6.038;2023-07-20T07:12:51;99773.56;;;19.53;72.42
59419;BME280;45224;50.904;6.038;2023-07-20T07:14:22;99770.31;;;19.47;72.47
59419;BME280;45224;50.904;6.038;2023-07-20T07:15:52;99771.94;;;19.26;73.33
59419;BME280;45224;50.904;6.038;2023-07-20T07:17:23;99778.69;;;19.33;73.25
59419;BME280;45224;50.904;6.038;2023-07-20T07:18:53;99776.41;;;19.47;73.40
59419;BME280;45224;50.904;6.038;2023-07-20T07:20:24;99780.53;;;19.55;73.16
59419;BME280;45224;50.904;6.038;2023-07-20T07:21:54;99779.25;;;19.65;73.10
59419;BME280;45224;50.904;6.038;2023-07-20T07:23:25;99784.06;;;19.77;71.90
59419;BME280;45224;50.904;6.038;2023-07-20T07:24:55;99776.41;;;19.95;70.54
59419;BME280;45224;50.904;6.038;2023-07-20T07:26:26;99767.44;;;20.00;70.79
59419;BME280;45224;50.904;6.038;2023-07-20T07:27:56;99782.28;;;20.23;69.08
59419;BME280;45224;50.904;6.038;2023-07-20T07:29:27;99786.13;;;20.37;68.63
59419;BME280;45224;50.904;6.038;2023-07-20T07:30:57;99783.25;;;20.43;68.25
59419;BME280;45224;50.904;6.038;2023-07-20T07:32:28;99791.66;;;20.51;67.55
59419;BME280;45224;50.904;6.038;2023-07-20T07:33:58;99784.56;;;20.53;66.92
59419;BME280;45224;50.904;6.038;2023-07-20T07:35:29;99785.28;;;20.57;67.12
59419;BME280;45224;50.904;6.038;2023-07-20T07:37:00;99790.72;;;20.52;67.14
59419;BME280;45224;50.904;6.038;2023-07-20T07:38:30;99787.97;;;20.55;67.01
59419;BME280;45224;50.904;6.038;2023-07-20T07:40:01;99793.22;;;20.55;67.16
59419;BME280;45224;50.904;6.038;2023-07-20T07:41:31;99792.50;;;20.52;66.87
59419;BME280;45224;50.904;6.038;2023-07-20T07:43:02;99802.41;;;20.45;66.78
59419;BME280;45224;50.904;6.038;2023-07-20T07:44:32;99801.50;;;20.46;66.83
59419;BME280;45224;50.904;6.038;2023-07-20T07:46:03;99800.56;;;20.47;66.51
59419;BME280;45224;50.904;6.038;2023-07-20T07:47:34;99804.25;;;20.43;66.25
59419;BME280;45224;50.904;6.038;2023-07-20T07:49:04;99797.16;;;20.45;66.18
59419;BME280;45224;50.904;6.038;2023-07-20T07:50:35;99790.31;;;20.41;66.84
59419;BME280;45224;50.904;6.038;2023-07-20T07:52:05;99791.91;;;20.45;66.33
59419;BME280;45224;50.904;6.038;2023-07-20T07:53:36;99795.88;;;20.55;66.25
59419;BME280;45224;50.904;6.038;2023-07-20T07:55:07;99796.91;;;20.51;65.24
59419;BME280;45224;50.904;6.038;2023-07-20T07:56:38;99799.88;;;20.66;65.55
59419;BME280;45224;50.904;6.038;2023-07-20T07:58:08;99801.06;;;20.79;65.58
59419;BME280;45224;50.904;6.038;2023-07-20T07:59:39;99801.13;;;20.55;65.92
59419;BME280;45224;50.904;6.038;2023-07-20T08:01:10;99798.94;;;20.67;65.00
59419;BME280;45224;50.904;6.038;2023-07-20T08:02:41;99799.88;;;20.86;65.48
59419;BME280;45224;50.904;6.038;2023-07-20T08:04:12;99806.25;;;21.01;64.94
59419;BME280;45224;50.904;6.038;2023-07-20T08:05:43;99807.09;;;21.02;64.48
59419;BME280;45224;50.904;6.038;2023-07-20T08:07:13;99798.19;;;21.06;64.55
59419;BME280;45224;50.904;6.038;2023-07-20T08:08:44;99804.72;;;20.95;64.23
59419;BME280;45224;50.904;6.038;2023-07-20T08:10:14;99799.88;;;20.86;64.74
59419;BME280;45224;50.904;6.038;2023-07-20T08:11:45;99799.94;;;21.05;63.62
59419;BME280;45224;50.904;6.038;2023-07-20T08:13:16;99799.34;;;21.19;63.20